createdAt,value
2022-11-28T00:00:38.977Z,4.90
2022-11-28T00:03:06.056Z,4.90
2022-11-28T00:05:46.930Z,4.80
2022-11-28T00:08:20.935Z,4.70
2022-11-28T00:10:54.037Z,4.70
2022-11-28T00:13:20.931Z,4.60
2022-11-28T00:16:10.129Z,4.60
2022-11-28T00:18:43.991Z,4.50
2022-11-28T00:21:12.675Z,4.50
2022-11-28T00:23:39.755Z,4.60
2022-11-28T00:26:38.058Z,4.70
2022-11-28T00:29:05.731Z,4.70
2022-11-28T00:31:45.037Z,4.60
2022-11-28T00:34:14.019Z,4.60
2022-11-28T00:36:41.213Z,4.60
2022-11-28T00:39:15.002Z,4.60
2022-11-28T00:41:47.976Z,4.60
2022-11-28T00:44:15.185Z,4.70
2022-11-28T00:46:48.977Z,4.60
2022-11-28T00:49:15.881Z,4.70
2022-11-28T00:51:49.002Z,4.80
2022-11-28T00:54:15.937Z,4.80
2022-11-28T00:56:49.047Z,4.70
2022-11-28T00:59:22.666Z,4.60
2022-11-28T01:01:56.061Z,4.50
2022-11-28T01:04:23.073Z,4.40
2022-11-28T01:06:57.012Z,4.40
2022-11-28T01:09:24.404Z,4.50
2022-11-28T01:11:58.967Z,4.50
2022-11-28T01:14:26.052Z,4.50
2022-11-28T01:17:00.081Z,4.50
2022-11-28T01:19:26.956Z,4.70
2022-11-28T01:21:53.830Z,4.60
2022-11-28T01:24:27.001Z,4.50
2022-11-28T01:26:53.901Z,4.50
2022-11-28T01:29:26.989Z,4.50
2022-11-28T01:31:53.918Z,4.40
2022-11-28T01:34:20.785Z,4.50
2022-11-28T01:36:54.021Z,4.50
2022-11-28T01:39:26.992Z,4.60
2022-11-28T01:41:53.902Z,4.60
2022-11-28T01:44:27.025Z,4.60
2022-11-28T01:46:53.984Z,4.60
2022-11-28T01:49:47.041Z,4.70
2022-11-28T01:52:15.807Z,4.70
2022-11-28T01:54:44.523Z,4.60
2022-11-28T01:57:24.995Z,4.60
2022-11-28T02:00:04.961Z,4.60
2022-11-28T02:03:17.067Z,4.60
2022-11-28T02:05:43.970Z,4.50
2022-11-28T02:08:17.069Z,4.60
2022-11-28T02:10:52.736Z,4.60
2022-11-28T02:13:47.078Z,4.70
2022-11-28T02:16:28.867Z,4.60
2022-11-28T02:19:41.045Z,4.60
2022-11-28T02:22:12.754Z,4.60
2022-11-28T02:25:11.091Z,4.70
2022-11-28T02:27:59.628Z,4.70
2022-11-28T02:31:10.097Z,4.70
2022-11-28T02:33:44.998Z,4.70
2022-11-28T02:36:24.052Z,4.70
2022-11-28T02:39:27.060Z,4.60
2022-11-28T02:42:20.529Z,4.70
2022-11-28T02:45:07.045Z,4.60
2022-11-28T02:47:37.351Z,4.70
2022-11-28T02:50:32.048Z,4.70
2022-11-28T02:53:18.060Z,4.70
2022-11-28T02:55:51.041Z,4.70
2022-11-28T02:58:17.956Z,4.70
2022-11-28T03:00:47.886Z,4.70
2022-11-28T03:04:08.050Z,4.60
2022-11-28T03:07:45.128Z,4.60
2022-11-28T03:10:29.187Z,4.40
2022-11-28T03:13:24.038Z,4.50
2022-11-28T03:16:13.176Z,4.50
2022-11-28T03:19:10.122Z,4.40
2022-11-28T03:22:06.844Z,4.40
2022-11-28T03:24:55.061Z,4.40
2022-11-28T03:27:27.211Z,4.40
2022-11-28T03:30:13.054Z,4.40
2022-11-28T03:32:39.912Z,4.30
2022-11-28T03:35:21.095Z,4.40
2022-11-28T03:37:54.200Z,4.50
2022-11-28T03:40:32.037Z,4.40
2022-11-28T03:43:08.127Z,4.50
2022-11-28T03:46:00.090Z,4.50
2022-11-28T03:48:32.346Z,4.50
2022-11-28T03:51:22.072Z,4.50
2022-11-28T03:54:20.062Z,4.40
2022-11-28T03:57:28.117Z,4.30
2022-11-28T04:00:01.105Z,4.30
2022-11-28T04:02:55.441Z,4.30
2022-11-28T04:06:03.098Z,4.40
2022-11-28T04:08:40.469Z,4.20
2022-11-28T04:11:29.111Z,4.20
2022-11-28T04:14:20.477Z,4.10
2022-11-28T04:17:04.164Z,4.10
2022-11-28T04:19:41.496Z,4.10
2022-11-28T04:22:31.082Z,4.20
2022-11-28T04:25:08.063Z,4.20
2022-11-28T04:28:04.133Z,4.20
2022-11-28T04:30:37.096Z,4.20
2022-11-28T04:33:06.297Z,4.20
2022-11-28T04:35:44.065Z,4.20
2022-11-28T04:38:11.548Z,4.20
2022-11-28T04:40:53.084Z,4.30
2022-11-28T04:43:35.481Z,4.30
2022-11-28T04:46:17.166Z,4.30
2022-11-28T04:48:50.093Z,4.40
2022-11-28T04:51:31.530Z,4.40
2022-11-28T04:54:25.558Z,4.40
2022-11-28T04:57:07.141Z,4.30
2022-11-28T04:59:34.038Z,4.20
2022-11-28T05:02:10.148Z,4.30
2022-11-28T05:04:37.041Z,4.30
2022-11-28T05:07:12.116Z,4.40
2022-11-28T05:09:39.450Z,4.40
2022-11-28T05:12:13.123Z,4.40
2022-11-28T05:14:46.125Z,4.40
2022-11-28T05:17:13.233Z,4.40
2022-11-28T05:19:46.173Z,4.40
2022-11-28T05:22:13.070Z,4.40
2022-11-28T05:24:46.304Z,4.30
2022-11-28T05:27:13.371Z,4.40
2022-11-28T05:29:52.118Z,4.50
2022-11-28T05:32:26.171Z,4.50
2022-11-28T05:34:59.131Z,4.60
2022-11-28T05:37:26.370Z,4.50
2022-11-28T05:40:00.135Z,4.60
2022-11-28T05:42:27.033Z,4.60
2022-11-28T05:45:00.123Z,4.50
2022-11-28T05:47:27.008Z,4.50
2022-11-28T05:50:00.158Z,4.50
2022-11-28T05:52:28.733Z,4.50
2022-11-28T05:55:02.127Z,4.50
2022-11-28T05:57:29.040Z,4.50
2022-11-28T06:00:02.129Z,4.60
2022-11-28T06:02:35.256Z,4.70
2022-11-28T06:05:34.809Z,4.60
2022-11-28T06:08:02.211Z,4.80
2022-11-28T06:10:36.152Z,4.80
2022-11-28T06:13:10.268Z,4.90
2022-11-28T06:15:38.436Z,5.00
2022-11-28T06:18:12.108Z,5.00
2022-11-28T06:20:45.172Z,5.10
2022-11-28T06:23:18.135Z,5.10
2022-11-28T06:25:45.013Z,5.00
2022-11-28T06:28:18.180Z,5.00
2022-11-28T06:30:45.028Z,4.90
2022-11-28T06:33:18.117Z,5.00
2022-11-28T06:35:45.045Z,5.10
2022-11-28T06:38:18.118Z,5.00
2022-11-28T06:40:45.089Z,5.20
2022-11-28T06:43:12.028Z,5.20
2022-11-28T06:45:45.440Z,5.10
2022-11-28T06:48:12.471Z,5.20
2022-11-28T06:50:46.142Z,5.30
2022-11-28T06:53:13.617Z,5.30
2022-11-28T06:55:47.163Z,5.20
2022-11-28T06:58:14.030Z,5.20
2022-11-28T07:00:54.206Z,5.20
2022-11-28T07:03:21.113Z,5.20
2022-11-28T07:05:48.031Z,5.30
2022-11-28T07:08:21.226Z,5.20
2022-11-28T07:10:48.215Z,5.20
2022-11-28T07:13:21.201Z,5.30
2022-11-28T07:15:58.178Z,5.20
2022-11-28T07:18:25.073Z,5.30
2022-11-28T07:20:51.918Z,5.20
2022-11-28T07:23:25.148Z,5.30
2022-11-28T07:25:57.325Z,5.30
2022-11-28T07:28:31.186Z,5.40
2022-11-28T07:31:06.765Z,5.50
2022-11-28T07:33:41.220Z,5.50
2022-11-28T07:36:14.005Z,5.60
2022-11-28T07:38:47.223Z,5.70
2022-11-28T07:41:14.236Z,5.70
2022-11-28T07:43:48.197Z,5.60
2022-11-28T07:46:17.245Z,5.60
2022-11-28T07:48:51.242Z,5.70
2022-11-28T07:51:24.058Z,5.70
2022-11-28T07:53:57.288Z,5.80
2022-11-28T07:59:21.153Z,5.90
2022-11-28T08:01:54.303Z,5.90
2022-11-28T08:04:21.496Z,5.90
2022-11-28T08:06:55.170Z,6.00
2022-11-28T08:09:22.013Z,6.00
2022-11-28T08:11:55.291Z,6.00
2022-11-28T08:14:28.208Z,5.90
2022-11-28T08:16:55.189Z,5.90
2022-11-28T08:19:31.954Z,6.00
2022-11-28T08:22:00.801Z,6.00
2022-11-28T08:24:34.266Z,6.10
2022-11-28T08:27:01.506Z,6.10
2022-11-28T08:29:37.815Z,6.10
2022-11-28T08:32:11.272Z,6.30
2022-11-28T08:34:38.227Z,6.30
2022-11-28T08:37:05.141Z,6.40
2022-11-28T08:39:38.186Z,6.50
2022-11-28T08:42:11.217Z,6.50
2022-11-28T08:44:38.152Z,6.70
2022-11-28T08:47:05.212Z,6.70
2022-11-28T08:49:38.211Z,6.70
2022-11-28T08:52:05.509Z,6.90
2022-11-28T08:54:39.196Z,7.00
2022-11-28T08:57:06.100Z,7.10
2022-11-28T08:59:39.254Z,7.10
2022-11-28T09:02:06.266Z,7.10
2022-11-28T09:04:39.220Z,7.20
2022-11-28T09:07:12.404Z,7.10
2022-11-28T09:09:39.343Z,7.20
2022-11-28T09:12:13.258Z,7.40
2022-11-28T09:14:40.259Z,7.30
2022-11-28T09:17:13.460Z,7.30
2022-11-28T09:19:47.260Z,7.50
2022-11-28T09:22:14.157Z,7.60
2022-11-28T09:24:41.129Z,7.80
2022-11-28T09:27:14.247Z,8.00
2022-11-28T09:29:41.343Z,8.00
2022-11-28T09:32:15.266Z,8.10
2022-11-28T09:34:42.176Z,8.10
2022-11-28T09:37:15.206Z,8.20
2022-11-28T09:40:04.800Z,8.30
2022-11-28T09:42:47.211Z,8.40
2022-11-28T09:45:30.233Z,8.20
2022-11-28T09:48:09.245Z,8.30
2022-11-28T09:50:42.223Z,8.30
2022-11-28T09:53:39.271Z,8.30
2022-11-28T09:56:16.989Z,8.40
2022-11-28T09:58:56.210Z,8.50
2022-11-28T10:01:43.092Z,8.60
2022-11-28T10:04:46.281Z,8.60
2022-11-28T10:07:55.317Z,8.50
2022-11-28T10:10:53.282Z,8.70
2022-11-28T10:14:07.618Z,8.80
2022-11-28T10:17:45.241Z,8.80
2022-11-28T10:20:32.379Z,8.80
2022-11-28T10:23:20.298Z,8.80
2022-11-28T10:26:00.752Z,8.80
2022-11-28T10:28:44.236Z,8.90
2022-11-28T10:31:46.245Z,8.80
2022-11-28T10:35:15.183Z,9.00
2022-11-28T10:37:49.247Z,9.00
2022-11-28T10:40:59.590Z,9.00
2022-11-28T10:43:58.246Z,9.10
2022-11-28T10:46:44.897Z,9.00
2022-11-28T10:49:32.255Z,9.00
2022-11-28T10:52:36.231Z,9.30
2022-11-28T10:55:14.632Z,9.20
2022-11-28T10:57:57.293Z,9.30
2022-11-28T11:00:24.138Z,9.30
2022-11-28T11:03:02.691Z,9.30
2022-11-28T11:05:42.439Z,9.40
2022-11-28T11:08:28.380Z,9.40
2022-11-28T11:11:03.011Z,9.40
2022-11-28T11:13:39.349Z,9.50
2022-11-28T11:16:11.130Z,9.50
2022-11-28T11:18:50.284Z,9.60
2022-11-28T11:21:21.795Z,9.50
2022-11-28T11:23:49.774Z,9.50
2022-11-28T11:26:34.372Z,9.60
2022-11-28T11:29:08.333Z,9.50
2022-11-28T11:31:54.429Z,9.50
2022-11-28T11:34:29.451Z,9.60
2022-11-28T11:37:29.293Z,9.50
2022-11-28T11:40:02.315Z,9.60
2022-11-28T11:42:31.169Z,9.40
2022-11-28T11:45:31.378Z,9.50
2022-11-28T11:47:58.561Z,9.50
2022-11-28T11:50:28.356Z,9.50
2022-11-28T11:53:08.317Z,9.50
2022-11-28T11:55:48.490Z,9.60
2022-11-28T11:58:54.355Z,9.50
2022-11-28T12:01:21.372Z,9.50
2022-11-28T12:04:23.742Z,9.70
2022-11-28T12:06:54.476Z,9.70
2022-11-28T12:09:54.695Z,9.70
2022-11-28T12:12:28.999Z,9.70
2022-11-28T12:15:02.416Z,9.70
2022-11-28T12:17:59.005Z,9.70
2022-11-28T12:21:10.422Z,9.80
2022-11-28T12:24:16.430Z,9.80
2022-11-28T12:26:58.382Z,9.90
2022-11-28T12:29:53.387Z,9.80
2022-11-28T12:32:56.990Z,9.80
2022-11-28T12:35:52.435Z,9.90
2022-11-28T12:38:59.863Z,9.90
2022-11-28T12:41:54.381Z,10.00
2022-11-28T12:44:54.420Z,10.00
2022-11-28T12:47:58.371Z,10.00
2022-11-28T12:50:37.820Z,10.10
2022-11-28T12:53:19.477Z,10.00
2022-11-28T12:56:33.446Z,10.10
2022-11-28T12:59:20.459Z,10.00
2022-11-28T13:02:29.542Z,9.90
2022-11-28T13:05:51.358Z,9.80
2022-11-28T13:09:01.390Z,10.00
2022-11-28T13:12:27.833Z,10.00
2022-11-28T13:15:07.576Z,10.10
2022-11-28T13:17:56.427Z,10.10
2022-11-28T13:20:45.843Z,10.20
2022-11-28T13:24:00.930Z,10.20
2022-11-28T13:27:11.465Z,10.20
2022-11-28T13:30:09.523Z,10.10
2022-11-28T13:33:04.441Z,10.20
2022-11-28T13:35:38.376Z,10.10
2022-11-28T13:38:36.896Z,10.30
2022-11-28T13:42:05.849Z,10.00
2022-11-28T13:44:49.707Z,10.10
2022-11-28T13:47:43.389Z,10.30
2022-11-28T13:50:28.560Z,10.20
2022-11-28T13:53:16.681Z,10.10
2022-11-28T13:56:15.898Z,10.30
2022-11-28T13:59:01.618Z,10.30
2022-11-28T14:01:54.373Z,10.30
2022-11-28T14:04:28.127Z,10.20
2022-11-28T14:07:06.774Z,10.40
2022-11-28T14:10:16.445Z,10.20
2022-11-28T14:12:59.504Z,10.20
2022-11-28T14:15:31.658Z,10.30
2022-11-28T14:18:39.655Z,10.40
2022-11-28T14:21:44.773Z,10.20
2022-11-28T14:24:43.826Z,10.20
2022-11-28T14:27:39.437Z,10.30
2022-11-28T14:30:07.402Z,10.40
2022-11-28T14:32:47.446Z,10.30
2022-11-28T14:35:50.666Z,10.20
2022-11-28T14:38:39.439Z,10.10
2022-11-28T14:41:10.738Z,10.20
2022-11-28T14:43:46.478Z,10.30
2022-11-28T14:46:16.631Z,10.20
2022-11-28T14:49:05.431Z,10.10
2022-11-28T14:52:15.937Z,10.10
2022-11-28T14:54:44.701Z,10.00
2022-11-28T14:57:39.469Z,9.90
2022-11-28T15:00:22.388Z,9.90
2022-11-28T15:03:17.431Z,10.00
2022-11-28T15:05:52.453Z,9.90
2022-11-28T15:08:25.948Z,9.80
2022-11-28T15:11:33.501Z,9.80
2022-11-28T15:14:21.435Z,9.80
2022-11-28T15:16:56.508Z,9.60
2022-11-28T15:19:43.496Z,9.50
2022-11-28T15:22:46.445Z,9.60
2022-11-28T15:25:28.458Z,9.60
2022-11-28T15:27:55.657Z,9.50
2022-11-28T15:30:31.480Z,9.50
2022-11-28T15:33:01.781Z,9.30
2022-11-28T15:35:35.493Z,9.20
2022-11-28T15:38:09.494Z,9.30
2022-11-28T15:40:43.494Z,9.10
2022-11-28T15:43:13.183Z,9.10
2022-11-28T15:45:40.272Z,9.20
2022-11-28T15:48:40.631Z,9.10
2022-11-28T15:51:14.518Z,8.90
2022-11-28T15:53:41.715Z,9.00
2022-11-28T15:56:14.337Z,8.90
2022-11-28T15:58:49.470Z,8.90
2022-11-28T16:01:26.362Z,8.70
2022-11-28T16:04:19.428Z,8.70
2022-11-28T16:06:57.464Z,8.60
2022-11-28T16:09:31.352Z,8.60
2022-11-28T16:12:04.468Z,8.60
2022-11-28T16:14:42.898Z,8.50
2022-11-28T16:17:22.742Z,8.40
2022-11-28T16:19:57.430Z,8.40
2022-11-28T16:22:39.282Z,8.40
2022-11-28T16:25:30.565Z,8.30
2022-11-28T16:27:57.540Z,8.30
2022-11-28T16:30:35.468Z,8.20
2022-11-28T16:33:02.910Z,8.10
2022-11-28T16:35:43.486Z,8.00
2022-11-28T16:38:29.460Z,7.90
2022-11-28T16:41:00.043Z,8.00
2022-11-28T16:43:43.534Z,7.90
2022-11-28T16:46:31.535Z,7.80
2022-11-28T16:48:59.082Z,7.70
2022-11-28T16:51:32.524Z,7.60
2022-11-28T16:54:20.883Z,7.60
2022-11-28T16:56:54.550Z,7.50
2022-11-28T16:59:28.562Z,7.50
2022-11-28T17:02:01.524Z,7.50
2022-11-28T17:04:30.180Z,7.40
2022-11-28T17:07:07.070Z,7.30
2022-11-28T17:09:40.811Z,7.30
2022-11-28T17:12:29.681Z,7.10
2022-11-28T17:15:03.475Z,7.00
2022-11-28T17:17:30.643Z,7.10
2022-11-28T17:19:57.692Z,7.10
2022-11-28T17:22:56.514Z,7.10
2022-11-28T17:25:23.869Z,7.00
2022-11-28T17:27:51.318Z,7.00
2022-11-28T17:30:28.915Z,6.90
2022-11-28T17:33:02.474Z,6.90
2022-11-28T17:35:36.482Z,6.80
2022-11-28T17:38:03.306Z,6.70
2022-11-28T17:40:36.570Z,6.60
2022-11-28T17:43:04.245Z,6.60
2022-11-28T17:45:39.528Z,6.50
2022-11-28T17:48:06.547Z,6.50
2022-11-28T17:50:39.500Z,6.40
2022-11-28T17:53:12.674Z,6.30
2022-11-28T17:55:47.517Z,6.30
2022-11-28T17:58:29.545Z,6.30
2022-11-28T18:01:00.556Z,6.20
2022-11-28T18:03:34.457Z,6.10
2022-11-28T18:06:07.497Z,6.10
2022-11-28T18:08:34.448Z,5.90
2022-11-28T18:11:15.506Z,5.80
2022-11-28T18:13:48.487Z,5.60
2022-11-28T18:16:18.207Z,5.50
2022-11-28T18:18:45.305Z,5.40
2022-11-28T18:21:18.568Z,5.40
2022-11-28T18:23:47.319Z,5.40
2022-11-28T18:26:26.650Z,5.30
2022-11-28T18:28:53.871Z,5.30
2022-11-28T18:31:29.598Z,5.30
2022-11-28T18:34:02.009Z,5.40
2022-11-28T18:36:37.487Z,5.30
2022-11-28T18:39:13.512Z,5.30
2022-11-28T18:41:47.513Z,5.20
2022-11-28T18:44:22.400Z,5.20
2022-11-28T18:46:55.525Z,5.20
2022-11-28T18:49:22.424Z,5.20
2022-11-28T18:51:55.490Z,5.00
2022-11-28T18:54:22.537Z,5.00
2022-11-28T18:56:55.527Z,4.90
2022-11-28T18:59:22.592Z,4.80
2022-11-28T19:02:02.609Z,4.70
2022-11-28T19:04:36.607Z,4.70
2022-11-28T19:07:03.616Z,4.60
2022-11-28T19:09:37.558Z,4.60
2022-11-28T19:12:04.730Z,4.50
2022-11-28T19:14:38.541Z,4.50
2022-11-28T19:17:05.677Z,4.40
2022-11-28T19:19:32.619Z,4.40
2022-11-28T19:22:05.611Z,4.30
2022-11-28T19:24:32.705Z,4.30
2022-11-28T19:27:12.542Z,4.30
2022-11-28T19:29:47.663Z,4.30
2022-11-28T19:32:21.511Z,4.20
2022-11-28T19:34:48.478Z,4.20
2022-11-28T19:37:21.648Z,4.20
2022-11-28T19:39:59.736Z,4.20
2022-11-28T19:42:35.647Z,4.30
2022-11-28T19:45:02.695Z,4.20
2022-11-28T19:47:36.648Z,4.20
2022-11-28T19:50:03.965Z,4.10
2022-11-28T19:52:37.621Z,4.10
2022-11-28T19:55:05.119Z,4.20
2022-11-28T19:57:32.117Z,4.20
2022-11-28T20:00:05.612Z,4.20
2022-11-28T20:02:38.670Z,4.10
2022-11-28T20:05:12.793Z,4.10
2022-11-28T20:07:46.633Z,3.90
2022-11-28T20:10:13.813Z,3.90
2022-11-28T20:12:40.903Z,3.80
2022-11-28T20:15:18.317Z,3.70
2022-11-28T20:17:45.617Z,3.70
2022-11-28T20:20:19.735Z,3.60
2022-11-28T20:22:53.694Z,3.60
2022-11-28T20:25:27.690Z,3.60
2022-11-28T20:27:54.649Z,3.50
2022-11-28T20:30:28.733Z,3.40
2022-11-28T20:32:55.714Z,3.30
2022-11-28T20:35:29.660Z,3.30
2022-11-28T20:37:56.735Z,3.30
2022-11-28T20:40:30.619Z,3.20
2022-11-28T20:43:04.710Z,3.10
2022-11-28T20:45:32.674Z,3.10
2022-11-28T20:48:06.595Z,3.10
2022-11-28T20:50:39.581Z,3.00
2022-11-28T20:53:06.656Z,3.00
2022-11-28T20:55:40.625Z,3.00
2022-11-28T20:58:14.627Z,2.90
2022-11-28T21:00:41.716Z,3.00
2022-11-28T21:03:15.643Z,3.00
2022-11-28T21:05:42.792Z,3.00
2022-11-28T21:08:09.800Z,2.90
2022-11-28T21:10:43.613Z,2.80
2022-11-28T21:13:10.766Z,2.70
2022-11-28T21:15:50.659Z,2.70
2022-11-28T21:18:24.670Z,2.60
2022-11-28T21:20:51.807Z,2.60
2022-11-28T21:23:18.930Z,2.60
2022-11-28T21:25:52.659Z,2.50
2022-11-28T21:28:19.705Z,2.50
2022-11-28T21:30:53.677Z,2.50
2022-11-28T21:33:27.692Z,2.50
2022-11-28T21:36:01.699Z,2.50
2022-11-28T21:38:29.690Z,2.50
2022-11-28T21:41:03.698Z,2.40
2022-11-28T21:43:37.660Z,2.50
2022-11-28T21:46:05.577Z,2.60
2022-11-28T21:48:39.688Z,2.60
2022-11-28T21:51:07.667Z,2.60
2022-11-28T21:53:41.687Z,2.50
2022-11-28T21:56:09.876Z,2.60
2022-11-28T21:58:36.972Z,2.60
2022-11-28T22:01:13.716Z,2.60
2022-11-28T22:03:50.660Z,2.80
2022-11-28T22:06:29.679Z,2.80
2022-11-28T22:08:56.775Z,2.80
2022-11-28T22:11:24.024Z,2.80
2022-11-28T22:13:57.718Z,2.90
2022-11-28T22:16:27.346Z,2.90
2022-11-28T22:18:55.869Z,2.90
2022-11-28T22:24:17.137Z,2.80
2022-11-28T22:26:50.735Z,2.70
2022-11-28T22:29:17.838Z,2.60
2022-11-28T22:31:44.822Z,2.60
2022-11-28T22:34:18.704Z,2.50
2022-11-28T22:36:45.737Z,2.40
2022-11-28T22:39:19.710Z,2.50
2022-11-28T22:41:46.745Z,2.50
2022-11-28T22:44:20.630Z,2.50
2022-11-28T22:46:47.715Z,2.40
2022-11-28T22:49:21.749Z,2.40
2022-11-28T22:51:55.828Z,2.30
2022-11-28T22:54:22.925Z,2.30
2022-11-28T22:56:56.655Z,2.20
2022-11-28T22:59:23.685Z,2.30
2022-11-28T23:01:50.725Z,2.20
2022-11-28T23:04:24.642Z,2.10
2022-11-28T23:06:51.815Z,2.10
2022-11-28T23:09:25.691Z,2.20
2022-11-28T23:11:52.805Z,2.30
2022-11-28T23:14:19.818Z,2.40
2022-11-28T23:16:53.760Z,2.40
2022-11-28T23:19:20.907Z,2.40
2022-11-28T23:21:55.670Z,2.40
2022-11-28T23:24:23.095Z,2.50
2022-11-28T23:26:56.658Z,2.50
2022-11-28T23:29:23.888Z,2.40
2022-11-28T23:31:57.733Z,2.50
2022-11-28T23:34:31.664Z,2.50
2022-11-28T23:36:58.746Z,2.60
2022-11-28T23:39:32.756Z,2.50
2022-11-28T23:41:59.847Z,2.60
2022-11-28T23:44:27.051Z,2.60
2022-11-28T23:47:00.696Z,2.60
2022-11-28T23:49:28.188Z,2.60
2022-11-28T23:52:01.704Z,2.50
2022-11-28T23:54:35.667Z,2.50
2022-11-28T23:57:08.660Z,2.60
2022-11-28T23:59:35.814Z,2.60
